sensor_id;sensor_type;location;lat;lon;timestamp;pressure;altitude;pressure_sealevel;temperature;humidity
33185;BME280;19550;42.872;25.494;2023-05-25T00:02:08;96330.63;;;12.15;100.00
33185;BME280;19550;42.872;25.494;2023-05-25T00:04:39;96327.34;;;12.13;100.00
33185;BME280;19550;42.872;25.494;2023-05-25T00:07:06;96322.22;;;12.24;100.00
33185;BME280;19550;42.872;25.494;2023-05-25T00:09:34;96325.69;;;12.21;100.00
33185;BME280;19550;42.872;25.494;2023-05-25T00:12:01;96326.84;;;12.11;100.00
33185;BME280;19550;42.872;25.494;2023-05-25T00:14:28;96317.91;;;12.06;100.00
33185;BME280;19550;42.872;25.494;2023-05-25T00:16:55;96330.84;;;11.93;100.00
33185;BME280;19550;42.872;25.494;2023-05-25T00:19:22;96316.44;;;12.00;100.00
33185;BME280;19550;42.872;25.494;2023-05-25T00:21:49;96312.19;;;12.02;100.00
33185;BME280;19550;42.872;25.494;2023-05-25T00:24:16;96327.53;;;12.08;100.00
33185;BME280;19550;42.872;25.494;2023-05-25T00:26:44;96312.97;;;12.11;100.00
33185;BME280;19550;42.872;25.494;2023-05-25T00:29:11;96316.56;;;12.12;100.00
33185;BME280;19550;42.872;25.494;2023-05-25T00:31:39;96318.88;;;12.10;100.00
33185;BME280;19550;42.872;25.494;2023-05-25T00:34:06;96312.53;;;12.01;100.00
33185;BME280;19550;42.872;25.494;2023-05-25T00:36:32;96321.03;;;11.96;100.00
33185;BME280;19550;42.872;25.494;2023-05-25T00:38:59;96319.22;;;12.00;100.00
33185;BME280;19550;42.872;25.494;2023-05-25T00:41:27;96321.50;;;11.98;100.00
33185;BME280;19550;42.872;25.494;2023-05-25T00:43:55;96327.75;;;11.94;100.00
33185;BME280;19550;42.872;25.494;2023-05-25T00:46:22;96327.44;;;11.87;100.00
33185;BME280;19550;42.872;25.494;2023-05-25T00:48:51;96332.50;;;11.77;100.00
33185;BME280;19550;42.872;25.494;2023-05-25T00:51:20;96327.94;;;11.81;100.00
33185;BME280;19550;42.872;25.494;2023-05-25T00:53:46;96326.31;;;11.80;100.00
33185;BME280;19550;42.872;25.494;2023-05-25T00:56:17;96317.47;;;11.86;100.00
33185;BME280;19550;42.872;25.494;2023-05-25T00:58:45;96324.19;;;11.68;100.00
33185;BME280;19550;42.872;25.494;2023-05-25T01:01:17;96329.09;;;11.63;100.00
33185;BME280;19550;42.872;25.494;2023-05-25T01:03:47;96325.16;;;11.64;100.00
33185;BME280;19550;42.872;25.494;2023-05-25T01:06:20;96334.16;;;11.69;100.00
33185;BME280;19550;42.872;25.494;2023-05-25T01:08:50;96335.75;;;11.70;100.00
33185;BME280;19550;42.872;25.494;2023-05-25T01:11:20;96337.41;;;11.63;100.00
33185;BME280;19550;42.872;25.494;2023-05-25T01:13:51;96336.44;;;11.59;100.00
33185;BME280;19550;42.872;25.494;2023-05-25T01:16:21;96333.66;;;11.67;100.00
33185;BME280;19550;42.872;25.494;2023-05-25T01:18:47;96333.81;;;11.62;100.00
33185;BME280;19550;42.872;25.494;2023-05-25T01:21:20;96331.19;;;11.57;100.00
33185;BME280;19550;42.872;25.494;2023-05-25T01:23:52;96323.38;;;11.50;100.00
33185;BME280;19550;42.872;25.494;2023-05-25T01:26:23;96326.16;;;11.50;100.00
33185;BME280;19550;42.872;25.494;2023-05-25T01:28:53;96327.81;;;11.43;100.00
33185;BME280;19550;42.872;25.494;2023-05-25T01:31:21;96320.78;;;11.37;100.00
33185;BME280;19550;42.872;25.494;2023-05-25T01:33:49;96314.75;;;11.43;100.00
33185;BME280;19550;42.872;25.494;2023-05-25T01:36:18;96314.56;;;11.48;100.00
33185;BME280;19550;42.872;25.494;2023-05-25T01:38:45;96318.00;;;11.45;100.00
33185;BME280;19550;42.872;25.494;2023-05-25T01:41:12;96325.03;;;11.43;100.00
33185;BME280;19550;42.872;25.494;2023-05-25T01:43:39;96317.69;;;11.38;100.00
33185;BME280;19550;42.872;25.494;2023-05-25T01:46:12;96316.22;;;11.32;100.00
33185;BME280;19550;42.872;25.494;2023-05-25T01:48:46;96322.75;;;11.19;100.00
33185;BME280;19550;42.872;25.494;2023-05-25T01:51:25;96324.38;;;11.11;100.00
33185;BME280;19550;42.872;25.494;2023-05-25T01:53:57;96316.69;;;11.17;100.00
33185;BME280;19550;42.872;25.494;2023-05-25T01:56:26;96320.78;;;11.11;100.00
33185;BME280;19550;42.872;25.494;2023-05-25T01:58:55;96325.03;;;11.08;100.00
33185;BME280;19550;42.872;25.494;2023-05-25T02:01:24;96321.59;;;11.11;100.00
33185;BME280;19550;42.872;25.494;2023-05-25T02:03:52;96317.38;;;11.14;100.00
33185;BME280;19550;42.872;25.494;2023-05-25T02:06:20;96318.50;;;11.13;100.00
33185;BME280;19550;42.872;25.494;2023-05-25T02:08:47;96330.91;;;11.15;100.00
33185;BME280;19550;42.872;25.494;2023-05-25T02:11:14;96328.63;;;11.00;100.00
33185;BME280;19550;42.872;25.494;2023-05-25T02:13:41;96331.22;;;11.05;100.00
33185;BME280;19550;42.872;25.494;2023-05-25T02:16:08;96334.81;;;11.06;100.00
33185;BME280;19550;42.872;25.494;2023-05-25T02:18:35;96348.66;;;10.97;100.00
33185;BME280;19550;42.872;25.494;2023-05-25T02:21:02;96339.88;;;10.95;100.00
33185;BME280;19550;42.872;25.494;2023-05-25T02:23:30;96336.44;;;10.90;100.00
33185;BME280;19550;42.872;25.494;2023-05-25T02:25:57;96342.16;;;11.02;100.00
33185;BME280;19550;42.872;25.494;2023-05-25T02:28:23;96342.16;;;11.10;100.00
33185;BME280;19550;42.872;25.494;2023-05-25T02:30:50;96348.69;;;11.06;100.00
33185;BME280;19550;42.872;25.494;2023-05-25T02:33:17;96355.72;;;11.03;100.00
33185;BME280;19550;42.872;25.494;2023-05-25T02:35:45;96357.97;;;10.93;100.00
33185;BME280;19550;42.872;25.494;2023-05-25T02:38:12;96352.59;;;10.88;100.00
33185;BME280;19550;42.872;25.494;2023-05-25T02:40:40;96355.34;;;10.88;100.00
33185;BME280;19550;42.872;25.494;2023-05-25T02:43:07;96362.69;;;10.92;100.00
33185;BME280;19550;42.872;25.494;2023-05-25T02:45:34;96358.78;;;10.93;100.00
33185;BME280;19550;42.872;25.494;2023-05-25T02:48:01;96362.50;;;10.80;100.00
33185;BME280;19550;42.872;25.494;2023-05-25T02:50:27;96361.38;;;10.81;100.00
33185;BME280;19550;42.872;25.494;2023-05-25T02:52:54;96369.03;;;10.75;100.00
33185;BME280;19550;42.872;25.494;2023-05-25T02:55:21;96359.44;;;10.82;100.00
33185;BME280;19550;42.872;25.494;2023-05-25T02:57:51;96373.75;;;10.84;100.00
33185;BME280;19550;42.872;25.494;2023-05-25T03:00:18;96374.25;;;10.77;100.00
33185;BME280;19550;42.872;25.494;2023-05-25T03:02:46;96369.69;;;10.81;100.00
33185;BME280;19550;42.872;25.494;2023-05-25T03:05:13;96375.75;;;10.83;100.00
33185;BME280;19550;42.872;25.494;2023-05-25T03:07:40;96372.78;;;10.80;100.00
33185;BME280;19550;42.872;25.494;2023-05-25T03:10:08;96362.34;;;10.85;100.00
33185;BME280;19550;42.872;25.494;2023-05-25T03:12:35;96370.69;;;10.85;100.00
33185;BME280;19550;42.872;25.494;2023-05-25T03:15:03;96369.22;;;10.88;100.00
33185;BME280;19550;42.872;25.494;2023-05-25T03:17:30;96376.59;;;11.01;100.00
33185;BME280;19550;42.872;25.494;2023-05-25T03:19:57;96367.94;;;11.02;100.00
33185;BME280;19550;42.872;25.494;2023-05-25T03:22:24;96372.19;;;11.00;100.00
33185;BME280;19550;42.872;25.494;2023-05-25T03:24:51;96375.75;;;11.00;100.00
33185;BME280;19550;42.872;25.494;2023-05-25T03:27:18;96375.78;;;11.09;100.00
33185;BME280;19550;42.872;25.494;2023-05-25T03:29:47;96379.38;;;11.18;100.00
33185;BME280;19550;42.872;25.494;2023-05-25T03:32:15;96377.94;;;11.29;100.00
33185;BME280;19550;42.872;25.494;2023-05-25T03:34:42;96368.13;;;11.40;100.00
33185;BME280;19550;42.872;25.494;2023-05-25T03:37:09;96381.00;;;11.45;100.00
33185;BME280;19550;42.872;25.494;2023-05-25T03:39:36;96376.59;;;11.52;100.00
33185;BME280;19550;42.872;25.494;2023-05-25T03:42:03;96377.09;;;11.63;100.00
33185;BME280;19550;42.872;25.494;2023-05-25T03:44:30;96377.28;;;11.75;100.00
33185;BME280;19550;42.872;25.494;2023-05-25T03:46:57;96378.72;;;11.90;100.00
33185;BME280;19550;42.872;25.494;2023-05-25T03:49:25;96382.13;;;12.04;100.00
33185;BME280;19550;42.872;25.494;2023-05-25T03:51:52;96382.09;;;12.13;100.00
33185;BME280;19550;42.872;25.494;2023-05-25T03:54:19;96385.38;;;12.15;100.00
33185;BME280;19550;42.872;25.494;2023-05-25T03:56:46;96386.97;;;12.24;100.00
33185;BME280;19550;42.872;25.494;2023-05-25T03:59:12;96385.16;;;12.28;100.00
33185;BME280;19550;42.872;25.494;2023-05-25T04:01:39;96374.19;;;12.32;100.00
33185;BME280;19550;42.872;25.494;2023-05-25T04:04:06;96376.75;;;12.46;100.00
33185;BME280;19550;42.872;25.494;2023-05-25T04:06:34;96379.84;;;12.53;100.00
33185;BME280;19550;42.872;25.494;2023-05-25T04:09:02;96381.78;;;12.61;100.00
33185;BME280;19550;42.872;25.494;2023-05-25T04:11:29;96376.69;;;12.63;100.00
33185;BME280;19550;42.872;25.494;2023-05-25T04:13:56;96377.94;;;12.74;100.00
33185;BME280;19550;42.872;25.494;2023-05-25T04:16:24;96380.00;;;12.86;100.00
33185;BME280;19550;42.872;25.494;2023-05-25T04:18:51;96391.72;;;13.00;100.00
33185;BME280;19550;42.872;25.494;2023-05-25T04:21:17;96384.94;;;13.09;100.00
33185;BME280;19550;42.872;25.494;2023-05-25T04:23:45;96386.88;;;13.18;100.00
33185;BME280;19550;42.872;25.494;2023-05-25T04:26:12;96385.38;;;13.20;100.00
33185;BME280;19550;42.872;25.494;2023-05-25T04:28:40;96392.19;;;13.31;100.00
33185;BME280;19550;42.872;25.494;2023-05-25T04:31:07;96389.28;;;13.48;100.00
33185;BME280;19550;42.872;25.494;2023-05-25T04:33:34;96389.47;;;13.64;100.00
33185;BME280;19550;42.872;25.494;2023-05-25T04:36:03;96387.16;;;13.66;100.00
33185;BME280;19550;42.872;25.494;2023-05-25T04:38:30;96391.91;;;13.86;100.00
33185;BME280;19550;42.872;25.494;2023-05-25T04:40:58;96388.66;;;13.97;100.00
33185;BME280;19550;42.872;25.494;2023-05-25T04:43:26;96393.88;;;14.19;100.00
33185;BME280;19550;42.872;25.494;2023-05-25T04:45:54;96401.81;;;14.29;100.00
33185;BME280;19550;42.872;25.494;2023-05-25T04:48:21;96400.16;;;14.49;100.00
33185;BME280;19550;42.872;25.494;2023-05-25T04:50:48;96394.69;;;14.52;100.00
33185;BME280;19550;42.872;25.494;2023-05-25T04:53:16;96391.91;;;14.64;100.00
33185;BME280;19550;42.872;25.494;2023-05-25T04:55:43;96391.91;;;14.77;100.00
33185;BME280;19550;42.872;25.494;2023-05-25T04:58:11;96395.63;;;14.93;100.00
33185;BME280;19550;42.872;25.494;2023-05-25T05:00:37;96401.47;;;15.00;100.00
33185;BME280;19550;42.872;25.494;2023-05-25T05:03:04;96395.38;;;15.10;100.00
33185;BME280;19550;42.872;25.494;2023-05-25T05:05:32;96397.59;;;15.17;100.00
33185;BME280;19550;42.872;25.494;2023-05-25T05:07:59;96391.09;;;15.25;100.00
33185;BME280;19550;42.872;25.494;2023-05-25T05:10:27;96391.63;;;15.42;100.00
33185;BME280;19550;42.872;25.494;2023-05-25T05:12:54;96393.72;;;15.58;100.00
33185;BME280;19550;42.872;25.494;2023-05-25T05:15:22;96394.75;;;15.65;100.00
33185;BME280;19550;42.872;25.494;2023-05-25T05:17:49;96397.84;;;15.76;100.00
33185;BME280;19550;42.872;25.494;2023-05-25T05:20:16;96405.16;;;15.93;100.00
33185;BME280;19550;42.872;25.494;2023-05-25T05:22:43;96408.16;;;16.00;100.00
33185;BME280;19550;42.872;25.494;2023-05-25T05:25:10;96404.63;;;16.15;100.00
33185;BME280;19550;42.872;25.494;2023-05-25T05:27:37;96408.31;;;16.19;100.00
33185;BME280;19550;42.872;25.494;2023-05-25T05:30:05;96399.97;;;16.35;100.00
33185;BME280;19550;42.872;25.494;2023-05-25T05:32:33;96406.66;;;16.46;100.00
33185;BME280;19550;42.872;25.494;2023-05-25T05:35:00;96412.91;;;16.55;100.00
33185;BME280;19550;42.872;25.494;2023-05-25T05:37:27;96407.06;;;16.76;100.00
33185;BME280;19550;42.872;25.494;2023-05-25T05:39:54;96409.88;;;16.91;100.00
33185;BME280;19550;42.872;25.494;2023-05-25T05:42:20;96411.34;;;17.01;100.00
33185;BME280;19550;42.872;25.494;2023-05-25T05:44:47;96421.09;;;17.07;100.00
33185;BME280;19550;42.872;25.494;2023-05-25T05:47:14;96426.66;;;17.23;100.00
33185;BME280;19550;42.872;25.494;2023-05-25T05:49:42;96421.06;;;17.23;100.00
33185;BME280;19550;42.872;25.494;2023-05-25T05:52:09;96423.50;;;17.40;100.00
33185;BME280;19550;42.872;25.494;2023-05-25T05:54:36;96420.47;;;17.64;100.00
33185;BME280;19550;42.872;25.494;2023-05-25T05:57:03;96423.00;;;17.88;100.00
33185;BME280;19550;42.872;25.494;2023-05-25T05:59:30;96422.00;;;17.97;100.00
33185;BME280;19550;42.872;25.494;2023-05-25T06:01:57;96423.28;;;18.18;100.00
33185;BME280;19550;42.872;25.494;2023-05-25T06:04:24;96431.38;;;18.43;100.00
33185;BME280;19550;42.872;25.494;2023-05-25T06:06:54;96432.94;;;18.59;100.00
33185;BME280;19550;42.872;25.494;2023-05-25T06:09:21;96434.53;;;18.80;100.00
33185;BME280;19550;42.872;25.494;2023-05-25T06:11:48;96431.22;;;18.97;100.00
33185;BME280;19550;42.872;25.494;2023-05-25T06:14:14;96444.50;;;19.23;100.00
33185;BME280;19550;42.872;25.494;2023-05-25T06:16:41;96447.13;;;19.58;100.00
33185;BME280;19550;42.872;25.494;2023-05-25T06:19:09;96451.81;;;19.73;98.00
33185;BME280;19550;42.872;25.494;2023-05-25T06:21:36;96458.16;;;19.96;96.30
33185;BME280;19550;42.872;25.494;2023-05-25T06:24:05;96453.16;;;20.12;96.18
33185;BME280;19550;42.872;25.494;2023-05-25T06:26:32;96456.56;;;20.25;94.71
33185;BME280;19550;42.872;25.494;2023-05-25T06:28:59;96452.06;;;20.50;93.53
33185;BME280;19550;42.872;25.494;2023-05-25T06:31:26;96459.88;;;20.64;92.61
33185;BME280;19550;42.872;25.494;2023-05-25T06:33:53;96459.34;;;20.88;91.29
33185;BME280;19550;42.872;25.494;2023-05-25T06:36:19;96462.31;;;21.02;90.28
33185;BME280;19550;42.872;25.494;2023-05-25T06:38:46;96467.84;;;21.29;89.59
33185;BME280;19550;42.872;25.494;2023-05-25T06:41:14;96467.16;;;21.39;88.95
33185;BME280;19550;42.872;25.494;2023-05-25T06:43:42;96464.84;;;21.55;88.76
33185;BME280;19550;42.872;25.494;2023-05-25T06:46:09;96468.59;;;21.66;87.78
33185;BME280;19550;42.872;25.494;2023-05-25T06:48:38;96473.09;;;21.78;87.37
33185;BME280;19550;42.872;25.494;2023-05-25T06:51:04;96470.72;;;21.84;85.08
33185;BME280;19550;42.872;25.494;2023-05-25T06:53:31;96475.59;;;21.90;85.36
33185;BME280;19550;42.872;25.494;2023-05-25T06:55:58;96473.97;;;21.86;84.10
33185;BME280;19550;42.872;25.494;2023-05-25T06:58:26;96483.41;;;22.07;84.09
33185;BME280;19550;42.872;25.494;2023-05-25T07:00:53;96475.44;;;22.24;83.82
33185;BME280;19550;42.872;25.494;2023-05-25T07:03:20;96480.56;;;22.04;82.75
33185;BME280;19550;42.872;25.494;2023-05-25T07:05:46;96472.19;;;22.18;84.40
33185;BME280;19550;42.872;25.494;2023-05-25T07:08:13;96476.31;;;22.31;83.72
33185;BME280;19550;42.872;25.494;2023-05-25T07:10:40;96475.91;;;22.36;82.21
33185;BME280;19550;42.872;25.494;2023-05-25T07:13:08;96467.78;;;22.24;85.22
33185;BME280;19550;42.872;25.494;2023-05-25T07:15:37;96477.50;;;22.30;84.65
33185;BME280;19550;42.872;25.494;2023-05-25T07:18:03;96476.81;;;22.54;83.78
33185;BME280;19550;42.872;25.494;2023-05-25T07:20:30;96468.44;;;22.76;83.90
33185;BME280;19550;42.872;25.494;2023-05-25T07:22:58;96482.50;;;22.62;83.36
33185;BME280;19550;42.872;25.494;2023-05-25T07:25:25;96492.16;;;22.60;83.52
33185;BME280;19550;42.872;25.494;2023-05-25T07:27:52;96483.41;;;22.73;81.00
33185;BME280;19550;42.872;25.494;2023-05-25T07:30:19;96489.44;;;22.75;80.69
33185;BME280;19550;42.872;25.494;2023-05-25T07:32:47;96493.50;;;22.81;81.23
33185;BME280;19550;42.872;25.494;2023-05-25T07:35:14;96487.97;;;23.13;80.11
33185;BME280;19550;42.872;25.494;2023-05-25T07:37:41;96490.41;;;23.18;80.27
33185;BME280;19550;42.872;25.494;2023-05-25T07:40:08;96482.75;;;23.40;79.83
33185;BME280;19550;42.872;25.494;2023-05-25T07:42:36;96478.28;;;23.28;79.29
33185;BME280;19550;42.872;25.494;2023-05-25T07:45:03;96491.63;;;23.42;78.21
33185;BME280;19550;42.872;25.494;2023-05-25T07:47:30;96486.41;;;23.40;76.32
33185;BME280;19550;42.872;25.494;2023-05-25T07:49:58;96486.81;;;23.38;76.47
33185;BME280;19550;42.872;25.494;2023-05-25T07:52:25;96484.78;;;23.46;78.23
33185;BME280;19550;42.872;25.494;2023-05-25T07:54:52;96491.25;;;23.40;76.65
33185;BME280;19550;42.872;25.494;2023-05-25T07:57:18;96475.88;;;23.41;78.23
33185;BME280;19550;42.872;25.494;2023-05-25T07:59:45;96494.50;;;23.73;77.42
33185;BME280;19550;42.872;25.494;2023-05-25T08:02:12;96492.09;;;23.75;75.93
33185;BME280;19550;42.872;25.494;2023-05-25T08:04:39;96489.66;;;23.74;75.05
33185;BME280;19550;42.872;25.494;2023-05-25T08:07:07;96495.75;;;23.76;76.09
33185;BME280;19550;42.872;25.494;2023-05-25T08:09:34;96490.88;;;23.94;75.16
33185;BME280;19550;42.872;25.494;2023-05-25T08:12:01;96494.13;;;23.89;72.77
33185;BME280;19550;42.872;25.494;2023-05-25T08:14:28;96499.38;;;23.98;73.72
33185;BME280;19550;42.872;25.494;2023-05-25T08:16:54;96490.88;;;23.98;74.57
33185;BME280;19550;42.872;25.494;2023-05-25T08:19:21;96492.06;;;24.14;72.62
33185;BME280;19550;42.872;25.494;2023-05-25T08:21:48;96484.81;;;23.82;72.78
33185;BME280;19550;42.872;25.494;2023-05-25T08:24:17;96491.28;;;24.10;76.37
33185;BME280;19550;42.872;25.494;2023-05-25T08:26:44;96493.28;;;24.35;75.21
33185;BME280;19550;42.872;25.494;2023-05-25T08:29:12;96484.41;;;24.33;74.97
33185;BME280;19550;42.872;25.494;2023-05-25T08:31:38;96477.91;;;24.39;73.07
33185;BME280;19550;42.872;25.494;2023-05-25T08:34:08;96481.13;;;24.38;74.67
33185;BME280;19550;42.872;25.494;2023-05-25T08:36:35;96482.25;;;24.62;71.63
33185;BME280;19550;42.872;25.494;2023-05-25T08:39:02;96479.72;;;24.96;70.59
33185;BME280;19550;42.872;25.494;2023-05-25T08:41:32;96474.31;;;25.22;66.29
33185;BME280;19550;42.872;25.494;2023-05-25T08:44:00;96480.59;;;25.51;65.68
33185;BME280;19550;42.872;25.494;2023-05-25T08:46:31;96483.03;;;25.53;63.83
33185;BME280;19550;42.872;25.494;2023-05-25T08:49:03;96476.91;;;25.61;63.86
33185;BME280;19550;42.872;25.494;2023-05-25T08:51:34;96477.06;;;25.92;62.09
33185;BME280;19550;42.872;25.494;2023-05-25T08:54:06;96478.34;;;25.84;62.10
33185;BME280;19550;42.872;25.494;2023-05-25T08:56:40;96475.66;;;25.66;63.07
33185;BME280;19550;42.872;25.494;2023-05-25T08:59:16;96469.19;;;26.10;62.37
33185;BME280;19550;42.872;25.494;2023-05-25T09:01:51;96472.31;;;26.23;59.32
33185;BME280;19550;42.872;25.494;2023-05-25T09:04:19;96464.19;;;26.21;60.75
33185;BME280;19550;42.872;25.494;2023-05-25T09:06:47;96473.25;;;26.50;62.68
33185;BME280;19550;42.872;25.494;2023-05-25T09:09:15;96468.59;;;26.67;59.49
33185;BME280;19550;42.872;25.494;2023-05-25T09:11:44;96460.50;;;26.99;57.58
33185;BME280;19550;42.872;25.494;2023-05-25T09:14:12;96470.53;;;26.73;60.35
33185;BME280;19550;42.872;25.494;2023-05-25T09:16:39;96465.47;;;26.13;60.59
33185;BME280;19550;42.872;25.494;2023-05-25T09:19:06;96460.69;;;25.62;63.45
33185;BME280;19550;42.872;25.494;2023-05-25T09:21:33;96461.72;;;25.23;63.87
33185;BME280;19550;42.872;25.494;2023-05-25T09:24:01;96456.81;;;25.31;62.08
33185;BME280;19550;42.872;25.494;2023-05-25T09:26:28;96460.44;;;25.35;65.63
33185;BME280;19550;42.872;25.494;2023-05-25T09:28:56;96448.00;;;25.18;66.93
33185;BME280;19550;42.872;25.494;2023-05-25T09:31:23;96444.47;;;24.97;67.51
33185;BME280;19550;42.872;25.494;2023-05-25T09:33:50;96451.25;;;25.17;67.57
33185;BME280;19550;42.872;25.494;2023-05-25T09:36:20;96444.31;;;25.25;66.98
33185;BME280;19550;42.872;25.494;2023-05-25T09:38:47;96442.41;;;25.63;62.93
33185;BME280;19550;42.872;25.494;2023-05-25T09:41:14;96440.03;;;25.58;63.08
33185;BME280;19550;42.872;25.494;2023-05-25T09:43:41;96451.47;;;25.44;64.69
33185;BME280;19550;42.872;25.494;2023-05-25T09:46:10;96452.50;;;25.09;65.16
33185;BME280;19550;42.872;25.494;2023-05-25T09:48:37;96440.84;;;24.85;65.55
33185;BME280;19550;42.872;25.494;2023-05-25T09:51:05;96439.59;;;24.93;66.65
33185;BME280;19550;42.872;25.494;2023-05-25T09:53:33;96439.41;;;25.29;68.02
33185;BME280;19550;42.872;25.494;2023-05-25T09:56:00;96442.00;;;25.64;62.31
33185;BME280;19550;42.872;25.494;2023-05-25T09:58:26;96436.44;;;25.95;61.01
33185;BME280;19550;42.872;25.494;2023-05-25T10:00:53;96427.03;;;26.42;57.64
33185;BME280;19550;42.872;25.494;2023-05-25T10:03:22;96427.63;;;26.23;58.08
33185;BME280;19550;42.872;25.494;2023-05-25T10:05:49;96433.72;;;25.81;59.19
33185;BME280;19550;42.872;25.494;2023-05-25T10:08:19;96425.34;;;26.07;58.29
33185;BME280;19550;42.872;25.494;2023-05-25T10:10:47;96417.75;;;26.72;56.86
33185;BME280;19550;42.872;25.494;2023-05-25T10:13:19;96418.97;;;26.71;53.65
33185;BME280;19550;42.872;25.494;2023-05-25T10:15:47;96405.66;;;27.25;54.62
33185;BME280;19550;42.872;25.494;2023-05-25T10:18:14;96417.66;;;27.37;52.16
33185;BME280;19550;42.872;25.494;2023-05-25T10:20:45;96405.25;;;26.97;52.19
33185;BME280;19550;42.872;25.494;2023-05-25T10:23:15;96408.44;;;26.34;49.10
33185;BME280;19550;42.872;25.494;2023-05-25T10:25:44;96408.75;;;26.77;51.40
33185;BME280;19550;42.872;25.494;2023-05-25T10:28:18;96399.69;;;27.16;51.92
33185;BME280;19550;42.872;25.494;2023-05-25T10:30:45;96393.69;;;27.07;51.26
33185;BME280;19550;42.872;25.494;2023-05-25T10:33:13;96393.47;;;27.25;50.55
33185;BME280;19550;42.872;25.494;2023-05-25T10:35:42;96385.22;;;27.81;52.87
33185;BME280;19550;42.872;25.494;2023-05-25T10:38:11;96397.56;;;27.97;50.26
33185;BME280;19550;42.872;25.494;2023-05-25T10:40:38;96388.97;;;27.51;49.69
33185;BME280;19550;42.872;25.494;2023-05-25T10:43:05;96389.81;;;27.24;49.72
33185;BME280;19550;42.872;25.494;2023-05-25T10:45:33;96383.41;;;27.67;53.22
33185;BME280;19550;42.872;25.494;2023-05-25T10:48:00;96384.97;;;27.95;49.19
33185;BME280;19550;42.872;25.494;2023-05-25T10:50:27;96373.00;;;27.80;48.77
33185;BME280;19550;42.872;25.494;2023-05-25T10:53:01;96380.53;;;27.71;51.59
33185;BME280;19550;42.872;25.494;2023-05-25T10:55:40;96374.69;;;27.27;47.04
33185;BME280;19550;42.872;25.494;2023-05-25T10:58:07;96384.94;;;26.95;49.93
33185;BME280;19550;42.872;25.494;2023-05-25T11:00:35;96368.56;;;27.56;51.27
33185;BME280;19550;42.872;25.494;2023-05-25T11:03:03;96384.16;;;27.94;50.71
33185;BME280;19550;42.872;25.494;2023-05-25T11:05:31;96374.94;;;27.87;47.59
33185;BME280;19550;42.872;25.494;2023-05-25T11:07:59;96386.84;;;27.58;48.01
33185;BME280;19550;42.872;25.494;2023-05-25T11:10:58;96369.97;;;28.14;48.47
33185;BME280;19550;42.872;25.494;2023-05-25T11:13:34;96372.63;;;28.44;46.58
33185;BME280;19550;42.872;25.494;2023-05-25T11:16:18;96367.13;;;28.54;47.21
33185;BME280;19550;42.872;25.494;2023-05-25T11:18:49;96369.69;;;28.48;44.35
33185;BME280;19550;42.872;25.494;2023-05-25T11:21:21;96358.88;;;28.39;45.67
33185;BME280;19550;42.872;25.494;2023-05-25T11:23:53;96367.25;;;28.66;45.94
33185;BME280;19550;42.872;25.494;2023-05-25T11:26:22;96359.44;;;28.90;48.80
33185;BME280;19550;42.872;25.494;2023-05-25T11:28:50;96360.41;;;28.01;49.28
33185;BME280;19550;42.872;25.494;2023-05-25T11:31:21;96345.16;;;28.11;50.30
33185;BME280;19550;42.872;25.494;2023-05-25T11:33:54;96356.19;;;28.52;50.72
33185;BME280;19550;42.872;25.494;2023-05-25T11:36:23;96364.41;;;28.46;50.74
33185;BME280;19550;42.872;25.494;2023-05-25T11:38:51;96369.81;;;27.78;52.52
33185;BME280;19550;42.872;25.494;2023-05-25T11:41:18;96370.22;;;27.26;56.03
33185;BME280;19550;42.872;25.494;2023-05-25T11:43:48;96364.78;;;26.82;57.73
33185;BME280;19550;42.872;25.494;2023-05-25T11:46:16;96368.84;;;26.81;59.01
33185;BME280;19550;42.872;25.494;2023-05-25T11:48:48;96372.59;;;26.74;55.96
33185;BME280;19550;42.872;25.494;2023-05-25T11:51:16;96382.63;;;26.18;57.50
33185;BME280;19550;42.872;25.494;2023-05-25T11:53:44;96390.78;;;25.23;59.99
33185;BME280;19550;42.872;25.494;2023-05-25T11:56:12;96409.88;;;24.39;56.31
33185;BME280;19550;42.872;25.494;2023-05-25T11:58:39;96399.47;;;23.83;61.66
33185;BME280;19550;42.872;25.494;2023-05-25T12:01:14;96406.31;;;22.90;74.33
33185;BME280;19550;42.872;25.494;2023-05-25T12:03:43;96426.09;;;21.45;78.72
33185;BME280;19550;42.872;25.494;2023-05-25T12:06:22;96419.03;;;20.81;83.14
33185;BME280;19550;42.872;25.494;2023-05-25T12:08:49;96415.00;;;20.45;83.93
33185;BME280;19550;42.872;25.494;2023-05-25T12:11:16;96431.75;;;20.04;94.14
33185;BME280;19550;42.872;25.494;2023-05-25T12:13:43;96443.66;;;19.68;97.75
33185;BME280;19550;42.872;25.494;2023-05-25T12:16:10;96434.72;;;19.13;100.00
33185;BME280;19550;42.872;25.494;2023-05-25T12:18:39;96424.94;;;18.42;100.00
33185;BME280;19550;42.872;25.494;2023-05-25T12:21:05;96428.06;;;17.99;100.00
33185;BME280;19550;42.872;25.494;2023-05-25T12:23:33;96436.75;;;17.74;100.00
33185;BME280;19550;42.872;25.494;2023-05-25T12:26:10;96439.00;;;17.69;100.00
33185;BME280;19550;42.872;25.494;2023-05-25T12:28:37;96432.78;;;17.60;100.00
33185;BME280;19550;42.872;25.494;2023-05-25T12:31:19;96418.13;;;17.66;100.00
33185;BME280;19550;42.872;25.494;2023-05-25T12:34:01;96438.06;;;17.61;100.00
33185;BME280;19550;42.872;25.494;2023-05-25T12:36:41;96465.81;;;17.19;100.00
33185;BME280;19550;42.872;25.494;2023-05-25T12:39:09;96474.56;;;17.18;100.00
33185;BME280;19550;42.872;25.494;2023-05-25T12:41:43;96483.06;;;17.05;100.00
33185;BME280;19550;42.872;25.494;2023-05-25T12:44:21;96476.38;;;17.10;100.00
33185;BME280;19550;42.872;25.494;2023-05-25T12:46:49;96477.38;;;17.18;100.00
33185;BME280;19550;42.872;25.494;2023-05-25T12:49:29;96466.81;;;17.11;100.00
33185;BME280;19550;42.872;25.494;2023-05-25T12:51:57;96475.56;;;16.94;100.00